createdAt,value
2017-07-06T00:00:05.159Z,0
2017-07-06T00:01:04.867Z,0
2017-07-06T00:02:05.216Z,0
2017-07-06T00:03:03.969Z,0
2017-07-06T00:04:05.214Z,0
2017-07-06T00:05:04.666Z,0
2017-07-06T00:06:04.367Z,0
2017-07-06T00:07:04.725Z,0
2017-07-06T00:08:04.446Z,0
2017-07-06T00:09:05.045Z,0
2017-07-06T00:10:05.134Z,0
2017-07-06T00:11:05.176Z,0
2017-07-06T00:12:05.523Z,0
2017-07-06T00:13:05.232Z,0
2017-07-06T00:14:05.182Z,0
2017-07-06T00:15:04.978Z,0
2017-07-06T00:16:05.647Z,0
2017-07-06T00:17:05.676Z,0
2017-07-06T00:18:05.381Z,0
2017-07-06T00:19:05.730Z,0
2017-07-06T00:20:05.116Z,0
2017-07-06T00:21:05.780Z,0
2017-07-06T00:22:05.808Z,0
2017-07-06T00:23:05.517Z,0
2017-07-06T00:24:06.198Z,0
2017-07-06T00:25:05.909Z,0
2017-07-06T00:26:05.623Z,0
2017-07-06T00:27:05.644Z,0
2017-07-06T00:28:05.989Z,0
2017-07-06T00:29:06.277Z,0
2017-07-06T00:30:06.059Z,0
2017-07-06T00:31:06.084Z,0
2017-07-06T00:32:06.112Z,0
2017-07-06T00:33:05.510Z,0
2017-07-06T00:34:06.162Z,0
2017-07-06T00:35:06.207Z,0
2017-07-06T00:36:05.272Z,0
2017-07-06T00:37:05.620Z,0
2017-07-06T00:38:06.306Z,0
2017-07-06T00:39:06.303Z,0
2017-07-06T00:40:05.403Z,0
2017-07-06T00:41:06.396Z,0
2017-07-06T00:42:06.101Z,0
2017-07-06T00:43:06.193Z,0
2017-07-06T00:44:06.414Z,0
2017-07-06T00:45:06.174Z,0
2017-07-06T00:46:06.224Z,0
2017-07-06T00:47:06.572Z,0
2017-07-06T00:48:06.277Z,0
2017-07-06T00:49:06.226Z,0
2017-07-06T00:50:06.010Z,0
2017-07-06T00:51:06.688Z,0
2017-07-06T00:52:06.403Z,0
2017-07-06T00:53:06.101Z,0
2017-07-06T00:54:07.069Z,0
2017-07-06T00:55:06.803Z,0
2017-07-06T00:56:06.516Z,0
2017-07-06T00:57:06.546Z,0
2017-07-06T00:58:06.586Z,0
2017-07-06T00:59:06.891Z,0
2017-07-06T01:00:06.678Z,0
2017-07-06T01:01:06.645Z,0
2017-07-06T01:02:06.697Z,0
2017-07-06T01:03:06.717Z,0
2017-07-06T01:04:07.065Z,0
2017-07-06T01:05:07.096Z,0
2017-07-06T01:06:06.816Z,0
2017-07-06T01:07:06.849Z,0
2017-07-06T01:08:07.198Z,0
2017-07-06T01:09:07.518Z,0
2017-07-06T01:10:07.255Z,0
2017-07-06T01:11:06.956Z,0
2017-07-06T01:12:06.992Z,0
2017-07-06T01:13:07.341Z,0
2017-07-06T01:14:07.043Z,0
2017-07-06T01:15:07.332Z,0
2017-07-06T01:16:07.108Z,0
2017-07-06T01:17:06.843Z,0
2017-07-06T01:18:06.845Z,0
2017-07-06T01:19:07.199Z,0
2017-07-06T01:20:07.491Z,0
2017-07-06T01:21:07.244Z,0
2017-07-06T01:22:07.281Z,0
2017-07-06T01:23:07.617Z,0
2017-07-06T01:24:07.666Z,0
2017-07-06T01:25:07.688Z,0
2017-07-06T01:26:07.716Z,0
2017-07-06T01:27:07.745Z,0
2017-07-06T01:28:07.471Z,0
2017-07-06T01:29:06.859Z,0
2017-07-06T01:30:08.155Z,0
2017-07-06T01:31:07.549Z,0
2017-07-06T01:32:07.893Z,0
2017-07-06T01:33:07.931Z,0
2017-07-06T01:34:07.319Z,0
2017-07-06T01:35:07.600Z,0
2017-07-06T01:36:07.368Z,0
2017-07-06T01:37:07.413Z,0
2017-07-06T01:38:08.129Z,0
2017-07-06T01:39:07.468Z,0
2017-07-06T01:40:08.443Z,0
2017-07-06T01:41:07.536Z,0
2017-07-06T01:42:07.881Z,0
2017-07-06T01:43:07.590Z,0
2017-07-06T01:44:07.947Z,0
2017-07-06T01:45:08.535Z,0
2017-07-06T01:46:07.992Z,0
2017-07-06T01:47:07.373Z,0
2017-07-06T01:48:08.061Z,0
2017-07-06T01:49:08.411Z,0
2017-07-06T01:50:08.736Z,0
2017-07-06T01:51:08.464Z,0
2017-07-06T01:52:08.190Z,0
2017-07-06T01:53:08.531Z,0
2017-07-06T01:54:07.920Z,0
2017-07-06T01:55:08.832Z,0
2017-07-06T01:56:08.614Z,0
2017-07-06T01:57:08.322Z,0
2017-07-06T01:58:08.675Z,0
2017-07-06T01:59:08.715Z,0
2017-07-06T02:00:08.709Z,0
2017-07-06T02:01:08.453Z,0
2017-07-06T02:02:08.798Z,0
2017-07-06T02:03:08.182Z,0
2017-07-06T02:04:08.535Z,0
2017-07-06T02:05:09.138Z,0
2017-07-06T02:06:08.917Z,0
2017-07-06T02:07:08.305Z,0
2017-07-06T02:08:08.634Z,0
2017-07-06T02:09:08.676Z,0
2017-07-06T02:10:09.332Z,0
2017-07-06T02:11:08.413Z,0
2017-07-06T02:12:08.842Z,0
2017-07-06T02:13:09.123Z,0
2017-07-06T02:14:08.823Z,0
2017-07-06T02:15:09.196Z,0
2017-07-06T02:16:08.556Z,0
2017-07-06T02:17:08.270Z,0
2017-07-06T02:18:08.951Z,0
2017-07-06T02:19:08.326Z,0
2017-07-06T02:20:09.284Z,0
2017-07-06T02:21:08.705Z,0
2017-07-06T02:22:08.742Z,0
2017-07-06T02:23:09.397Z,0
2017-07-06T02:24:08.847Z,0
2017-07-06T02:25:09.444Z,0
2017-07-06T02:26:09.491Z,0
2017-07-06T02:27:09.271Z,0
2017-07-06T02:28:09.547Z,0
2017-07-06T02:29:08.631Z,0
2017-07-06T02:30:08.912Z,0
2017-07-06T02:31:09.637Z,0
2017-07-06T02:32:09.358Z,0
2017-07-06T02:33:09.699Z,0
2017-07-06T02:34:09.416Z,0
2017-07-06T02:35:10.061Z,0
2017-07-06T02:36:09.465Z,0
2017-07-06T02:37:09.511Z,0
2017-07-06T02:38:09.519Z,0
2017-07-06T02:39:09.876Z,0
2017-07-06T02:40:10.164Z,0
2017-07-06T02:41:09.301Z,0
2017-07-06T02:42:09.649Z,0
2017-07-06T02:43:09.359Z,0
2017-07-06T02:44:10.020Z,0
2017-07-06T02:45:10.352Z,0
2017-07-06T02:46:09.442Z,0
2017-07-06T02:47:10.113Z,0
2017-07-06T02:48:09.823Z,0
2017-07-06T02:49:10.176Z,0
2017-07-06T02:50:10.444Z,0
2017-07-06T02:51:09.921Z,0
2017-07-06T02:52:09.947Z,0
2017-07-06T02:53:09.656Z,0
2017-07-06T02:54:09.992Z,0
2017-07-06T02:55:10.336Z,0
2017-07-06T02:56:10.078Z,0
2017-07-06T02:57:10.414Z,0
2017-07-06T02:58:09.799Z,0
2017-07-06T02:59:10.165Z,0
2017-07-06T03:00:10.444Z,0
2017-07-06T03:01:10.525Z,0
2017-07-06T03:02:10.238Z,0
2017-07-06T03:03:10.577Z,0
2017-07-06T03:04:10.296Z,0
2017-07-06T03:05:10.253Z,0
2017-07-06T03:06:09.713Z,0
2017-07-06T03:07:10.059Z,0
2017-07-06T03:08:10.402Z,0
2017-07-06T03:09:10.448Z,0
2017-07-06T03:10:10.728Z,0
2017-07-06T03:11:10.506Z,0
2017-07-06T03:12:10.218Z,0
2017-07-06T03:13:10.875Z,0
2017-07-06T03:14:10.589Z,0
2017-07-06T03:15:10.911Z,0
2017-07-06T03:16:10.653Z,0
2017-07-06T03:17:10.026Z,0
2017-07-06T03:18:10.388Z,0
2017-07-06T03:19:10.088Z,0
2017-07-06T03:20:11.333Z,0
2017-07-06T03:21:10.795Z,0
2017-07-06T03:22:11.131Z,0
2017-07-06T03:23:10.534Z,0
2017-07-06T03:24:10.888Z,0
2017-07-06T03:25:11.485Z,0
2017-07-06T03:26:10.924Z,0
2017-07-06T03:27:11.286Z,0
2017-07-06T03:28:11.315Z,0
2017-07-06T03:29:11.027Z,0
2017-07-06T03:30:11.625Z,0
2017-07-06T03:31:11.097Z,0
2017-07-06T03:32:11.123Z,0
2017-07-06T03:33:10.817Z,0
2017-07-06T03:34:11.189Z,0
2017-07-06T03:35:11.145Z,0
2017-07-06T03:36:10.914Z,0
2017-07-06T03:37:11.272Z,0
2017-07-06T03:38:11.611Z,0
2017-07-06T03:39:11.684Z,0
2017-07-06T03:40:11.970Z,0
2017-07-06T03:41:10.738Z,0
2017-07-06T03:42:11.087Z,0
2017-07-06T03:43:10.795Z,0
2017-07-06T03:44:11.148Z,0
2017-07-06T03:45:11.432Z,0
2017-07-06T03:46:11.530Z,0
2017-07-06T03:47:11.554Z,0
2017-07-06T03:48:11.264Z,0
2017-07-06T03:49:10.976Z,0
2017-07-06T03:50:11.324Z,0
2017-07-06T03:51:11.654Z,0
2017-07-06T03:52:11.702Z,0
2017-07-06T03:53:12.043Z,0
2017-07-06T03:54:11.760Z,0
2017-07-06T03:55:12.107Z,0
2017-07-06T03:56:11.742Z,0
2017-07-06T03:57:11.537Z,0
2017-07-06T03:58:11.564Z,0
2017-07-06T03:59:11.916Z,0
2017-07-06T04:00:12.265Z,0
2017-07-06T04:01:11.953Z,0
2017-07-06T04:02:12.000Z,0
2017-07-06T04:03:12.019Z,0
2017-07-06T04:04:12.049Z,0
2017-07-06T04:05:12.089Z,0
2017-07-06T04:06:12.356Z,0
2017-07-06T04:07:12.154Z,0
2017-07-06T04:08:12.496Z,0
2017-07-06T04:09:12.521Z,0
2017-07-06T04:10:12.241Z,0
2017-07-06T04:11:12.866Z,0
2017-07-06T04:12:12.290Z,0
2017-07-06T04:13:12.325Z,0
2017-07-06T04:14:12.349Z,0
2017-07-06T04:15:12.385Z,0
2017-07-06T04:16:12.390Z,0
2017-07-06T04:17:12.442Z,0
2017-07-06T04:18:12.152Z,0
2017-07-06T04:19:12.492Z,0
2017-07-06T04:20:12.213Z,0
2017-07-06T04:21:12.854Z,0
2017-07-06T04:22:11.945Z,0
2017-07-06T04:23:12.284Z,0
2017-07-06T04:24:12.329Z,0
2017-07-06T04:25:13.057Z,0
2017-07-06T04:26:12.994Z,0
2017-07-06T04:27:12.417Z,0
2017-07-06T04:28:13.067Z,0
2017-07-06T04:29:13.105Z,0
2017-07-06T04:30:12.821Z,0
2017-07-06T04:31:13.419Z,0
2017-07-06T04:32:12.886Z,0
2017-07-06T04:33:12.921Z,0
2017-07-06T04:34:13.260Z,0
2017-07-06T04:35:12.957Z,0
2017-07-06T04:36:13.618Z,0
2017-07-06T04:37:13.395Z,0
2017-07-06T04:38:13.364Z,0
2017-07-06T04:39:13.085Z,0
2017-07-06T04:40:12.454Z,0
2017-07-06T04:41:13.074Z,5
2017-07-06T04:42:13.543Z,5
2017-07-06T04:43:13.516Z,5
2017-07-06T04:44:13.552Z,5
2017-07-06T04:45:13.246Z,5
2017-07-06T04:46:13.590Z,5
2017-07-06T04:47:12.672Z,5
2017-07-06T04:48:13.677Z,5
2017-07-06T04:49:13.046Z,5
2017-07-06T04:50:13.481Z,5
2017-07-06T04:51:13.046Z,5
2017-07-06T04:52:13.472Z,5
2017-07-06T04:53:13.171Z,5
2017-07-06T04:54:13.508Z,5
2017-07-06T04:55:13.550Z,5
2017-07-06T04:56:13.886Z,5
2017-07-06T04:57:13.931Z,5
2017-07-06T04:58:13.956Z,5
2017-07-06T04:59:13.996Z,5
2017-07-06T05:00:13.381Z,5
2017-07-06T05:01:14.013Z,5
2017-07-06T05:02:13.743Z,5
2017-07-06T05:03:13.780Z,5
2017-07-06T05:04:14.129Z,5
2017-07-06T05:05:14.158Z,5
2017-07-06T05:06:14.123Z,5
2017-07-06T05:07:14.220Z,5
2017-07-06T05:08:13.925Z,5
2017-07-06T05:09:13.961Z,5
2017-07-06T05:10:13.336Z,5
2017-07-06T05:11:14.264Z,5
2017-07-06T05:12:14.040Z,5
2017-07-06T05:13:14.382Z,5
2017-07-06T05:14:14.429Z,5
2017-07-06T05:15:14.166Z,5
2017-07-06T05:16:14.418Z,5
2017-07-06T05:17:14.187Z,5
2017-07-06T05:18:13.899Z,5
2017-07-06T05:19:14.562Z,5
2017-07-06T05:20:13.966Z,5
2017-07-06T05:21:13.987Z,5
2017-07-06T05:22:14.903Z,5
2017-07-06T05:23:14.360Z,5
2017-07-06T05:24:14.069Z,5
2017-07-06T05:25:14.414Z,5
2017-07-06T05:26:14.773Z,5
2017-07-06T05:27:14.740Z,5
2017-07-06T05:28:14.845Z,5
2017-07-06T05:29:14.870Z,5
2017-07-06T05:30:14.883Z,5
2017-07-06T05:31:14.271Z,5
2017-07-06T05:32:14.876Z,5
2017-07-06T05:33:14.352Z,5
2017-07-06T05:34:15.018Z,5
2017-07-06T05:35:14.714Z,5
2017-07-06T05:36:15.059Z,5
2017-07-06T05:37:14.712Z,5
2017-07-06T05:38:14.493Z,5
2017-07-06T05:39:14.829Z,5
2017-07-06T05:40:14.213Z,5
2017-07-06T05:41:14.599Z,5
2017-07-06T05:42:15.492Z,5
2017-07-06T05:43:15.272Z,5
2017-07-06T05:44:15.005Z,5
2017-07-06T05:45:14.714Z,5
2017-07-06T05:46:15.039Z,5
2017-07-06T05:47:15.359Z,5
2017-07-06T05:48:15.416Z,5
2017-07-06T05:49:15.478Z,5
2017-07-06T05:50:15.475Z,5
2017-07-06T05:51:15.511Z,5
2017-07-06T05:52:15.132Z,5
2017-07-06T05:53:15.560Z,5
2017-07-06T05:54:14.625Z,5
2017-07-06T05:55:14.986Z,5
2017-07-06T05:56:15.668Z,5
2017-07-06T05:57:15.681Z,10
2017-07-06T05:58:15.710Z,10
2017-07-06T05:59:15.418Z,10
2017-07-06T06:00:15.771Z,10
2017-07-06T06:01:15.167Z,10
2017-07-06T06:02:15.757Z,10
2017-07-06T06:03:15.849Z,10
2017-07-06T06:04:15.242Z,10
2017-07-06T06:05:15.278Z,10
2017-07-06T06:06:15.951Z,10
2017-07-06T06:07:15.916Z,10
2017-07-06T06:08:15.365Z,10
2017-07-06T06:09:15.072Z,10
2017-07-06T06:10:16.074Z,10
2017-07-06T06:11:16.100Z,10
2017-07-06T06:12:15.412Z,10
2017-07-06T06:13:15.822Z,10
2017-07-06T06:14:15.860Z,10
2017-07-06T06:15:15.883Z,10
2017-07-06T06:16:16.248Z,10
2017-07-06T06:17:16.528Z,10
2017-07-06T06:18:16.304Z,10
2017-07-06T06:19:16.326Z,10
2017-07-06T06:20:16.035Z,10
2017-07-06T06:21:16.088Z,10
2017-07-06T06:22:16.353Z,10
2017-07-06T06:23:16.425Z,10
2017-07-06T06:24:16.139Z,10
2017-07-06T06:25:16.191Z,10
2017-07-06T06:26:16.535Z,10
2017-07-06T06:27:16.168Z,10
2017-07-06T06:28:16.261Z,10
2017-07-06T06:29:15.979Z,10
2017-07-06T06:30:15.699Z,10
2017-07-06T06:31:16.362Z,10
2017-07-06T06:32:16.672Z,10
2017-07-06T06:33:16.097Z,10
2017-07-06T06:34:16.437Z,10
2017-07-06T06:35:16.475Z,10
2017-07-06T06:36:16.521Z,10
2017-07-06T06:37:16.793Z,10
2017-07-06T06:38:16.553Z,10
2017-07-06T06:39:16.922Z,10
2017-07-06T06:40:16.956Z,10
2017-07-06T06:41:16.341Z,10
2017-07-06T06:42:17.265Z,10
2017-07-06T06:43:16.384Z,10
2017-07-06T06:44:17.058Z,10
2017-07-06T06:45:16.771Z,10
2017-07-06T06:46:16.485Z,10
2017-07-06T06:47:17.093Z,10
2017-07-06T06:48:16.589Z,10
2017-07-06T06:49:16.950Z,10
2017-07-06T06:50:17.262Z,10
2017-07-06T06:51:17.276Z,10
2017-07-06T06:52:16.897Z,10
2017-07-06T06:53:17.006Z,10
2017-07-06T06:54:16.408Z,10
2017-07-06T06:55:17.063Z,10
2017-07-06T06:56:17.427Z,10
2017-07-06T06:57:17.100Z,10
2017-07-06T06:58:16.855Z,10
2017-07-06T06:59:17.499Z,10
2017-07-06T07:00:16.892Z,10
2017-07-06T07:01:17.561Z,10
2017-07-06T07:02:17.523Z,10
2017-07-06T07:03:17.307Z,10
2017-07-06T07:04:17.339Z,10
2017-07-06T07:05:17.679Z,10
2017-07-06T07:06:17.400Z,10
2017-07-06T07:07:17.705Z,10
2017-07-06T07:08:17.504Z,10
2017-07-06T07:09:17.811Z,10
2017-07-06T07:10:17.184Z,10
2017-07-06T07:11:16.900Z,10
2017-07-06T07:12:17.248Z,10
2017-07-06T07:13:18.214Z,10
2017-07-06T07:14:17.964Z,10
2017-07-06T07:15:17.341Z,10
2017-07-06T07:16:18.014Z,10
2017-07-06T07:17:17.719Z,10
2017-07-06T07:18:17.998Z,10
2017-07-06T07:19:17.771Z,10
2017-07-06T07:20:18.128Z,10
2017-07-06T07:21:17.841Z,10
2017-07-06T07:22:17.537Z,10
2017-07-06T07:23:18.478Z,10
2017-07-06T07:24:18.265Z,10
2017-07-06T07:25:17.952Z,10
2017-07-06T07:26:18.301Z,10
2017-07-06T07:27:18.010Z,10
2017-07-06T07:28:18.355Z,10
2017-07-06T07:29:18.391Z,10
2017-07-06T07:30:17.780Z,10
2017-07-06T07:31:18.140Z,10
2017-07-06T07:32:18.174Z,10
2017-07-06T07:33:17.849Z,10
2017-07-06T07:34:17.912Z,10
2017-07-06T07:35:17.936Z,10
2017-07-06T07:36:18.602Z,10
2017-07-06T07:37:17.985Z,10
2017-07-06T07:38:18.959Z,10
2017-07-06T07:39:18.698Z,10
2017-07-06T07:40:18.136Z,10
2017-07-06T07:41:18.429Z,10
2017-07-06T07:42:18.458Z,10
2017-07-06T07:43:19.064Z,10
2017-07-06T07:44:18.832Z,10
2017-07-06T07:45:18.875Z,10
2017-07-06T07:46:18.905Z,15
2017-07-06T07:47:18.609Z,15
2017-07-06T07:48:18.619Z,15
2017-07-06T07:49:18.679Z,15
2017-07-06T07:50:19.014Z,15
2017-07-06T07:51:19.049Z,15
2017-07-06T07:52:19.086Z,15
2017-07-06T07:53:19.353Z,15
2017-07-06T07:54:19.143Z,15
2017-07-06T07:55:18.848Z,15
2017-07-06T07:56:18.565Z,15
2017-07-06T07:57:19.230Z,15
2017-07-06T07:58:19.178Z,15
2017-07-06T07:59:18.641Z,15
2017-07-06T08:00:18.688Z,15
2017-07-06T08:01:19.037Z,10
2017-07-06T08:02:18.743Z,10
2017-07-06T08:03:19.010Z,10
2017-07-06T08:04:18.800Z,15
2017-07-06T08:05:19.149Z,15
2017-07-06T08:06:18.856Z,15
2017-07-06T08:07:19.190Z,15
2017-07-06T08:08:19.486Z,15
2017-07-06T08:09:18.940Z,15
2017-07-06T08:10:19.292Z,15
2017-07-06T08:11:19.334Z,15
2017-07-06T08:12:19.683Z,15
2017-07-06T08:13:20.011Z,15
2017-07-06T08:14:19.733Z,15
2017-07-06T08:15:19.131Z,15
2017-07-06T08:16:19.798Z,15
2017-07-06T08:17:19.181Z,15
2017-07-06T08:18:20.108Z,15
2017-07-06T08:19:19.572Z,15
2017-07-06T08:20:19.276Z,15
2017-07-06T08:21:19.626Z,15
2017-07-06T08:22:19.966Z,15
2017-07-06T08:23:19.616Z,15
2017-07-06T08:24:20.028Z,15
2017-07-06T08:25:19.729Z,15
2017-07-06T08:26:20.086Z,15
2017-07-06T08:27:20.141Z,15
2017-07-06T08:28:19.190Z,15
2017-07-06T08:29:20.481Z,15
2017-07-06T08:30:20.205Z,15
2017-07-06T08:31:20.237Z,15
2017-07-06T08:32:20.277Z,15
2017-07-06T08:33:20.295Z,15
2017-07-06T08:34:19.620Z,15
2017-07-06T08:35:20.029Z,15
2017-07-06T08:36:19.754Z,15
2017-07-06T08:37:19.785Z,15
2017-07-06T08:38:20.452Z,15
2017-07-06T08:39:20.140Z,15
2017-07-06T08:40:19.861Z,15
2017-07-06T08:41:20.525Z,15
2017-07-06T08:42:20.651Z,15
2017-07-06T08:43:19.646Z,15
2017-07-06T08:44:20.573Z,15
2017-07-06T08:45:20.662Z,15
2017-07-06T08:46:20.690Z,15
2017-07-06T08:47:20.733Z,15
2017-07-06T08:48:20.119Z,15
2017-07-06T08:49:20.077Z,15
2017-07-06T08:50:20.793Z,15
2017-07-06T08:51:20.523Z,15
2017-07-06T08:52:20.552Z,15
2017-07-06T08:53:20.891Z,15
2017-07-06T08:54:20.908Z,15
2017-07-06T08:55:20.634Z,15
2017-07-06T08:56:20.668Z,15
2017-07-06T08:57:20.695Z,15
2017-07-06T08:58:21.068Z,15
2017-07-06T08:59:20.736Z,15
2017-07-06T09:00:20.148Z,15
2017-07-06T09:01:20.819Z,20
2017-07-06T09:02:20.527Z,20
2017-07-06T09:03:20.884Z,20
2017-07-06T09:04:20.513Z,20
2017-07-06T09:05:20.953Z,20
2017-07-06T09:06:20.646Z,20
2017-07-06T09:07:20.675Z,20
2017-07-06T09:08:21.029Z,20
2017-07-06T09:09:20.996Z,20
2017-07-06T09:10:21.405Z,20
2017-07-06T09:11:21.121Z,20
2017-07-06T09:12:21.451Z,20
2017-07-06T09:13:20.867Z,20
2017-07-06T09:14:21.504Z,20
2017-07-06T09:15:20.921Z,20
2017-07-06T09:16:21.263Z,20
2017-07-06T09:17:20.978Z,20
2017-07-06T09:18:21.652Z,20
2017-07-06T09:19:21.288Z,20
2017-07-06T09:20:21.377Z,20
2017-07-06T09:21:21.410Z,20
2017-07-06T09:22:20.803Z,20
2017-07-06T09:23:21.471Z,20
2017-07-06T09:24:21.761Z,20
2017-07-06T09:25:21.541Z,20
2017-07-06T09:26:21.894Z,20
2017-07-06T09:27:21.924Z,20
2017-07-06T09:28:21.304Z,20
2017-07-06T09:29:22.272Z,20
2017-07-06T09:30:21.712Z,20
2017-07-06T09:31:21.738Z,20
2017-07-06T09:32:21.751Z,20
2017-07-06T09:33:21.787Z,20
2017-07-06T09:34:21.420Z,20
2017-07-06T09:35:21.509Z,20
2017-07-06T09:36:21.871Z,20
2017-07-06T09:37:22.219Z,20
2017-07-06T09:38:21.932Z,20
2017-07-06T09:39:22.205Z,20
2017-07-06T09:40:21.983Z,20
2017-07-06T09:41:22.012Z,20
2017-07-06T09:42:22.055Z,20
2017-07-06T09:43:22.397Z,20
2017-07-06T09:44:22.679Z,20
2017-07-06T09:45:21.819Z,20
2017-07-06T09:46:21.858Z,20
2017-07-06T09:47:22.193Z,20
2017-07-06T09:48:22.224Z,20
2017-07-06T09:49:22.193Z,20
2017-07-06T09:50:22.286Z,20
2017-07-06T09:51:21.683Z,20
2017-07-06T09:52:22.351Z,20
2017-07-06T09:53:22.700Z,20
2017-07-06T09:54:22.661Z,20
2017-07-06T09:55:22.114Z,20
2017-07-06T09:56:22.780Z,25
2017-07-06T09:57:22.836Z,25
2017-07-06T09:58:22.857Z,25
2017-07-06T09:59:22.802Z,25
2017-07-06T10:00:22.598Z,25
2017-07-06T10:01:22.316Z,25
2017-07-06T10:02:22.969Z,25
2017-07-06T10:03:23.003Z,25
2017-07-06T10:04:22.362Z,25
2017-07-06T10:05:22.742Z,25
2017-07-06T10:06:22.136Z,25
2017-07-06T10:07:23.129Z,25
2017-07-06T10:08:23.157Z,25
2017-07-06T10:09:23.158Z,25
2017-07-06T10:10:22.891Z,25
2017-07-06T10:11:23.263Z,25
2017-07-06T10:12:23.271Z,25
2017-07-06T10:13:23.293Z,25
2017-07-06T10:14:23.310Z,25
2017-07-06T10:15:23.362Z,25
2017-07-06T10:16:23.084Z,25
2017-07-06T10:17:22.787Z,25
2017-07-06T10:18:23.454Z,25
2017-07-06T10:19:23.102Z,25
2017-07-06T10:20:23.199Z,25
2017-07-06T10:21:23.240Z,25
2017-07-06T10:22:23.555Z,25
2017-07-06T10:23:22.961Z,25
2017-07-06T10:24:23.614Z,25
2017-07-06T10:25:23.014Z,25
2017-07-06T10:26:23.688Z,25
2017-07-06T10:27:22.767Z,25
2017-07-06T10:28:23.773Z,25
2017-07-06T10:29:24.097Z,25
2017-07-06T10:30:23.183Z,25
2017-07-06T10:31:23.520Z,25
2017-07-06T10:32:23.880Z,30
2017-07-06T10:33:23.596Z,30
2017-07-06T10:34:23.566Z,30
2017-07-06T10:35:23.647Z,30
2017-07-06T10:36:23.664Z,30
2017-07-06T10:37:23.718Z,30
2017-07-06T10:38:23.745Z,30
2017-07-06T10:39:23.696Z,30
2017-07-06T10:40:23.479Z,30
2017-07-06T10:41:24.152Z,30
2017-07-06T10:42:23.857Z,30
2017-07-06T10:43:23.562Z,30
2017-07-06T10:44:24.202Z,30
2017-07-06T10:45:24.271Z,30
2017-07-06T10:46:23.977Z,30
2017-07-06T10:47:24.018Z,30
2017-07-06T10:48:23.721Z,30
2017-07-06T10:49:24.333Z,30
2017-07-06T10:50:24.422Z,30
2017-07-06T10:51:24.460Z,30
2017-07-06T10:52:24.161Z,30
2017-07-06T10:53:24.190Z,30
2017-07-06T10:54:24.810Z,30
2017-07-06T10:55:23.939Z,30
2017-07-06T10:56:24.348Z,30
2017-07-06T10:57:24.621Z,30
2017-07-06T10:58:24.346Z,30
2017-07-06T10:59:24.621Z,30
2017-07-06T11:00:24.398Z,30
2017-07-06T11:01:24.772Z,30
2017-07-06T11:02:24.145Z,30
2017-07-06T11:03:24.814Z,30
2017-07-06T11:04:24.832Z,30
2017-07-06T11:05:24.549Z,30
2017-07-06T11:06:24.902Z,30
2017-07-06T11:07:24.305Z,30
2017-07-06T11:08:24.955Z,30
2017-07-06T11:09:24.933Z,30
2017-07-06T11:10:24.388Z,30
2017-07-06T11:11:25.056Z,30
2017-07-06T11:12:24.444Z,35
2017-07-06T11:13:24.788Z,35
2017-07-06T11:14:24.818Z,35
2017-07-06T11:15:24.851Z,35
2017-07-06T11:16:24.580Z,35
2017-07-06T11:17:25.258Z,35
2017-07-06T11:18:25.286Z,35
2017-07-06T11:19:25.607Z,40
2017-07-06T11:20:25.334Z,40
2017-07-06T11:21:25.376Z,45
2017-07-06T11:22:24.756Z,50
2017-07-06T11:23:25.103Z,55
2017-07-06T11:24:25.127Z,55
2017-07-06T11:25:25.415Z,60
2017-07-06T11:26:25.537Z,60
2017-07-06T11:27:25.549Z,65
2017-07-06T11:28:25.584Z,65
2017-07-06T11:29:25.623Z,70
2017-07-06T11:30:25.578Z,75
2017-07-06T11:31:25.031Z,80
2017-07-06T11:32:25.715Z,90
2017-07-06T11:33:25.732Z,125
2017-07-06T11:34:25.766Z,235
2017-07-06T11:35:25.779Z,305
2017-07-06T11:36:25.180Z,295
2017-07-06T11:37:25.540Z,340
2017-07-06T11:38:25.881Z,375
2017-07-06T11:39:25.274Z,400
2017-07-06T11:40:26.190Z,360
2017-07-06T11:41:25.656Z,350
2017-07-06T11:42:25.361Z,395
2017-07-06T11:43:25.719Z,490
2017-07-06T11:44:25.443Z,575
2017-07-06T11:45:25.764Z,635
2017-07-06T11:46:25.812Z,705
2017-07-06T11:47:25.522Z,750
2017-07-06T11:48:25.878Z,710
2017-07-06T11:49:25.915Z,650
2017-07-06T11:50:25.558Z,530
2017-07-06T11:51:25.973Z,555
2017-07-06T11:52:26.006Z,590
2017-07-06T11:53:25.699Z,590
2017-07-06T11:54:25.765Z,705
2017-07-06T11:55:26.350Z,755
2017-07-06T11:56:26.129Z,735
2017-07-06T11:57:26.486Z,675
2017-07-06T11:58:25.568Z,675
2017-07-06T11:59:26.228Z,665
2017-07-06T12:00:26.893Z,525
2017-07-06T12:01:26.301Z,430
2017-07-06T12:02:26.334Z,470
2017-07-06T12:03:26.672Z,485
2017-07-06T12:04:26.724Z,490
2017-07-06T12:05:26.365Z,455
2017-07-06T12:06:26.472Z,410
2017-07-06T12:07:26.826Z,440
2017-07-06T12:08:26.545Z,445
2017-07-06T12:09:26.247Z,410
2017-07-06T12:10:26.854Z,485
2017-07-06T12:11:26.947Z,525
2017-07-06T12:12:26.672Z,535
2017-07-06T12:13:26.706Z,465
2017-07-06T12:14:26.742Z,465
2017-07-06T12:15:27.026Z,520
2017-07-06T12:16:26.488Z,550
2017-07-06T12:17:26.520Z,465
2017-07-06T12:18:26.881Z,460
2017-07-06T12:19:26.586Z,460
2017-07-06T12:20:26.363Z,480
2017-07-06T12:21:27.237Z,525
2017-07-06T12:22:27.308Z,505
2017-07-06T12:23:27.354Z,400
2017-07-06T12:24:26.779Z,280
2017-07-06T12:25:27.439Z,255
2017-07-06T12:26:27.132Z,230
2017-07-06T12:27:27.257Z,285
2017-07-06T12:28:27.554Z,295
2017-07-06T12:29:27.567Z,380
2017-07-06T12:30:27.601Z,380
2017-07-06T12:31:27.305Z,390
2017-07-06T12:32:27.353Z,385
2017-07-06T12:33:27.389Z,485
2017-07-06T12:34:27.107Z,465
2017-07-06T12:35:27.764Z,450
2017-07-06T12:36:27.802Z,365
2017-07-06T12:37:27.858Z,400
2017-07-06T12:38:27.892Z,420
2017-07-06T12:39:27.600Z,390
2017-07-06T12:40:27.962Z,380
2017-07-06T12:41:28.274Z,330
2017-07-06T12:42:28.035Z,395
2017-07-06T12:43:27.423Z,455
2017-07-06T12:44:27.452Z,575
2017-07-06T12:45:27.817Z,750
2017-07-06T12:46:28.142Z,1000
2017-07-06T12:47:27.888Z,920
2017-07-06T12:48:27.283Z,785
2017-07-06T12:49:27.630Z,790
2017-07-06T12:50:27.982Z,820
2017-07-06T12:51:27.995Z,720
2017-07-06T12:52:27.723Z,525
2017-07-06T12:53:28.395Z,610
2017-07-06T12:54:28.453Z,740
2017-07-06T12:55:27.836Z,715
2017-07-06T12:56:28.446Z,580
2017-07-06T12:57:27.911Z,590
2017-07-06T12:58:28.583Z,680
2017-07-06T12:59:28.293Z,775
2017-07-06T13:00:28.349Z,865
2017-07-06T13:01:28.980Z,715
2017-07-06T13:02:28.390Z,795
2017-07-06T13:03:28.775Z,640
2017-07-06T13:04:27.800Z,670
2017-07-06T13:05:28.496Z,480
2017-07-06T13:06:28.465Z,280
2017-07-06T13:07:28.297Z,170
2017-07-06T13:08:28.602Z,140
2017-07-06T13:09:28.363Z,140
2017-07-06T13:10:28.672Z,170
2017-07-06T13:11:28.644Z,170
2017-07-06T13:12:28.754Z,155
2017-07-06T13:13:29.109Z,160
2017-07-06T13:14:29.142Z,145
2017-07-06T13:15:29.172Z,145
2017-07-06T13:16:29.183Z,150
2017-07-06T13:17:29.233Z,135
2017-07-06T13:18:29.297Z,140
2017-07-06T13:19:28.685Z,140
2017-07-06T13:20:28.711Z,140
2017-07-06T13:21:29.316Z,155
2017-07-06T13:22:29.400Z,140
2017-07-06T13:23:29.449Z,130
2017-07-06T13:24:29.178Z,145
2017-07-06T13:25:29.522Z,185
2017-07-06T13:26:29.479Z,200
2017-07-06T13:28:29.618Z,200
2017-07-06T13:29:29.335Z,185
2017-07-06T13:30:29.051Z,160
2017-07-06T13:31:29.652Z,185
2017-07-06T13:32:29.428Z,180
2017-07-06T13:33:29.785Z,165
2017-07-06T13:34:29.823Z,120
2017-07-06T13:35:29.545Z,80
2017-07-06T13:36:29.845Z,105
2017-07-06T13:37:29.925Z,155
2017-07-06T13:38:29.334Z,170
2017-07-06T13:39:29.686Z,160
2017-07-06T13:40:29.383Z,150
2017-07-06T13:41:29.996Z,145
2017-07-06T13:42:29.785Z,145
2017-07-06T13:43:29.850Z,140
2017-07-06T13:44:29.851Z,140
2017-07-06T13:45:29.876Z,140
2017-07-06T13:46:30.159Z,140
2017-07-06T13:47:29.633Z,140
2017-07-06T13:48:29.989Z,140
2017-07-06T13:49:30.031Z,140
2017-07-06T13:50:30.051Z,135
2017-07-06T13:51:30.671Z,130
2017-07-06T13:52:30.440Z,130
2017-07-06T13:53:30.163Z,130
2017-07-06T13:54:30.206Z,130
2017-07-06T13:55:30.548Z,130
2017-07-06T13:56:30.828Z,130
2017-07-06T13:57:30.636Z,130
2017-07-06T13:58:30.018Z,130
2017-07-06T13:59:30.362Z,130
2017-07-06T14:00:30.415Z,125
2017-07-06T14:01:30.361Z,120
2017-07-06T14:02:30.790Z,120
2017-07-06T14:03:30.838Z,120
2017-07-06T14:04:30.868Z,115
2017-07-06T14:05:30.588Z,120
2017-07-06T14:06:31.233Z,120
2017-07-06T14:07:30.659Z,115
2017-07-06T14:08:30.679Z,115
2017-07-06T14:09:30.407Z,115
2017-07-06T14:10:31.070Z,110
2017-07-06T14:11:31.407Z,110
2017-07-06T14:12:30.515Z,110
2017-07-06T14:13:30.533Z,110
2017-07-06T14:14:31.225Z,110
2017-07-06T14:15:31.254Z,110
2017-07-06T14:16:31.529Z,110
2017-07-06T14:17:30.684Z,80
2017-07-06T14:18:31.353Z,85
2017-07-06T14:19:30.421Z,90
2017-07-06T14:20:31.427Z,70
2017-07-06T14:21:31.396Z,90
2017-07-06T14:22:31.488Z,105
2017-07-06T14:23:31.202Z,115